Powderville, Montana
Current Conditions -  °F | °C
As of 10:51 PM on Wednesday 22 Oct 2014 (Local Time) from KBHK Reporting Station
Clear Clear  
Wind Chill: 36°   Ceiling: Unl
Heat Index: 36°   Visibility: 10mi
Dew Point: 28°   Wind: 0mph
Humidity: 73%   Direction: NA
Pressure: 29.96"   Gusts: NA
Location:  45.76°N, 105.11°W
Report Text: KBHK 230451Z AUTO 00000KT 10SM CLR 02/M02 A2996 RMK AO2 SLP153 T00221022
Loading
Personal Weather Stations






























Interactive Weather Map
Tropical Storm Tracking
New forecast layout! Learn more

10-Day Weather Forecast

Advertisements
Track Severe Weather on mobile